sensor_id;sensor_type;location;lat;lon;timestamp;pressure;altitude;pressure_sealevel;temperature;humidity
4972;BME280;2501;51.214;6.768;2023-02-16T00:01:50;102222.81;;;4.89;85.11
4972;BME280;2501;51.214;6.768;2023-02-16T00:04:20;102227.13;;;4.89;85.21
4972;BME280;2501;51.214;6.768;2023-02-16T00:06:50;102224.22;;;4.83;85.34
4972;BME280;2501;51.214;6.768;2023-02-16T00:09:20;102222.56;;;4.85;85.57
4972;BME280;2501;51.214;6.768;2023-02-16T00:11:50;102214.72;;;4.83;85.47
4972;BME280;2501;51.214;6.768;2023-02-16T00:14:33;102211.69;;;4.76;85.82
4972;BME280;2501;51.214;6.768;2023-02-16T00:17:05;102219.66;;;4.79;85.84
4972;BME280;2501;51.214;6.768;2023-02-16T00:19:35;102212.44;;;4.73;85.81
4972;BME280;2501;51.214;6.768;2023-02-16T00:22:05;102220.94;;;4.71;86.04
4972;BME280;2501;51.214;6.768;2023-02-16T00:24:35;102215.38;;;4.63;86.03
4972;BME280;2501;51.214;6.768;2023-02-16T00:27:09;102219.06;;;4.68;86.40
4972;BME280;2501;51.214;6.768;2023-02-16T00:29:39;102220.56;;;4.63;86.15
4972;BME280;2501;51.214;6.768;2023-02-16T00:32:11;102222.19;;;4.61;86.38
4972;BME280;2501;51.214;6.768;2023-02-16T00:34:40;102215.03;;;4.57;86.42
4972;BME280;2501;51.214;6.768;2023-02-16T00:37:11;102207.97;;;4.54;86.78
4972;BME280;2501;51.214;6.768;2023-02-16T00:39:41;102207.06;;;4.54;86.56
4972;BME280;2501;51.214;6.768;2023-02-16T00:42:13;102206.16;;;4.53;86.81
4972;BME280;2501;51.214;6.768;2023-02-16T00:44:46;102209.56;;;4.52;86.66
4972;BME280;2501;51.214;6.768;2023-02-16T00:47:21;102209.34;;;4.48;86.81
4972;BME280;2501;51.214;6.768;2023-02-16T00:49:52;102207.16;;;4.39;86.85
4972;BME280;2501;51.214;6.768;2023-02-16T00:52:30;102202.28;;;4.45;86.99
4972;BME280;2501;51.214;6.768;2023-02-16T00:55:00;102204.72;;;4.42;87.00
4972;BME280;2501;51.214;6.768;2023-02-16T00:57:32;102200.25;;;4.40;87.21
4972;BME280;2501;51.214;6.768;2023-02-16T01:00:06;102199.44;;;4.41;86.98
4972;BME280;2501;51.214;6.768;2023-02-16T01:02:38;102195.94;;;4.40;86.94
4972;BME280;2501;51.214;6.768;2023-02-16T01:05:07;102192.38;;;4.38;86.93
4972;BME280;2501;51.214;6.768;2023-02-16T01:07:35;102202.66;;;4.37;87.01
4972;BME280;2501;51.214;6.768;2023-02-16T01:10:16;102193.09;;;4.36;87.24
4972;BME280;2501;51.214;6.768;2023-02-16T01:12:57;102194.72;;;4.34;87.17
4972;BME280;2501;51.214;6.768;2023-02-16T01:15:26;102189.47;;;4.32;87.48
4972;BME280;2501;51.214;6.768;2023-02-16T01:17:57;102191.09;;;4.30;87.36
4972;BME280;2501;51.214;6.768;2023-02-16T01:20:27;102185.63;;;4.26;87.43
4972;BME280;2501;51.214;6.768;2023-02-16T01:22:55;102187.06;;;4.20;87.61
4972;BME280;2501;51.214;6.768;2023-02-16T01:25:23;102186.44;;;4.25;87.63
4972;BME280;2501;51.214;6.768;2023-02-16T01:27:52;102190.81;;;4.26;87.37
4972;BME280;2501;51.214;6.768;2023-02-16T01:30:22;102201.13;;;4.24;87.45
4972;BME280;2501;51.214;6.768;2023-02-16T01:32:51;102190.38;;;4.18;87.63
4972;BME280;2501;51.214;6.768;2023-02-16T01:35:23;102193.75;;;4.15;87.69
4972;BME280;2501;51.214;6.768;2023-02-16T01:37:55;102187.47;;;4.12;88.05
4972;BME280;2501;51.214;6.768;2023-02-16T01:40:29;102189.09;;;4.10;88.14
4972;BME280;2501;51.214;6.768;2023-02-16T01:43:09;102193.56;;;4.12;88.08
4972;BME280;2501;51.214;6.768;2023-02-16T01:45:42;102189.81;;;4.07;88.26
4972;BME280;2501;51.214;6.768;2023-02-16T01:48:20;102184.44;;;4.04;88.33
4972;BME280;2501;51.214;6.768;2023-02-16T01:50:55;102179.09;;;4.01;88.45
4972;BME280;2501;51.214;6.768;2023-02-16T01:53:30;102181.38;;;3.95;88.72
4972;BME280;2501;51.214;6.768;2023-02-16T01:56:02;102170.97;;;3.95;88.97
4972;BME280;2501;51.214;6.768;2023-02-16T01:58:35;102176.91;;;3.93;88.88
4972;BME280;2501;51.214;6.768;2023-02-16T02:04:27;102185.47;;;3.92;88.87
4972;BME280;2501;51.214;6.768;2023-02-16T02:07:17;102181.00;;;3.89;88.73
4972;BME280;2501;51.214;6.768;2023-02-16T02:09:54;102181.56;;;3.83;88.96
4972;BME280;2501;51.214;6.768;2023-02-16T02:12:27;102183.44;;;3.86;89.01
4972;BME280;2501;51.214;6.768;2023-02-16T02:14:59;102177.25;;;3.84;89.14
4972;BME280;2501;51.214;6.768;2023-02-16T02:17:28;102173.63;;;3.80;89.32
4972;BME280;2501;51.214;6.768;2023-02-16T02:20:03;102170.06;;;3.78;89.31
4972;BME280;2501;51.214;6.768;2023-02-16T02:23:10;102172.56;;;3.77;89.33
4972;BME280;2501;51.214;6.768;2023-02-16T02:29:04;102170.41;;;3.70;89.42
4972;BME280;2501;51.214;6.768;2023-02-16T02:31:45;102169.06;;;3.76;89.46
4972;BME280;2501;51.214;6.768;2023-02-16T02:34:22;102161.72;;;3.69;89.44
4972;BME280;2501;51.214;6.768;2023-02-16T02:37:02;102155.47;;;3.66;89.63
4972;BME280;2501;51.214;6.768;2023-02-16T02:39:42;102155.38;;;3.64;90.11
4972;BME280;2501;51.214;6.768;2023-02-16T02:42:18;102153.69;;;3.65;90.04
4972;BME280;2501;51.214;6.768;2023-02-16T02:44:56;102158.63;;;3.60;90.16
4972;BME280;2501;51.214;6.768;2023-02-16T02:47:36;102150.78;;;3.59;90.12
4972;BME280;2501;51.214;6.768;2023-02-16T02:50:29;102151.56;;;3.58;90.47
4972;BME280;2501;51.214;6.768;2023-02-16T02:53:02;102146.28;;;3.56;90.42
4972;BME280;2501;51.214;6.768;2023-02-16T02:55:33;102142.09;;;3.58;90.48
4972;BME280;2501;51.214;6.768;2023-02-16T02:58:16;102140.84;;;3.52;90.53
4972;BME280;2501;51.214;6.768;2023-02-16T03:01:05;102143.34;;;3.50;90.70
4972;BME280;2501;51.214;6.768;2023-02-16T03:03:36;102137.91;;;3.45;91.18
4972;BME280;2501;51.214;6.768;2023-02-16T03:06:08;102139.53;;;3.43;91.50
4972;BME280;2501;51.214;6.768;2023-02-16T03:08:40;102144.88;;;3.46;91.62
4972;BME280;2501;51.214;6.768;2023-02-16T03:11:12;102137.75;;;3.42;91.84
4972;BME280;2501;51.214;6.768;2023-02-16T03:13:57;102127.28;;;3.41;91.84
4972;BME280;2501;51.214;6.768;2023-02-16T03:16:33;102122.81;;;3.38;91.66
4972;BME280;2501;51.214;6.768;2023-02-16T03:19:04;102120.56;;;3.44;91.67
4972;BME280;2501;51.214;6.768;2023-02-16T03:21:47;102114.84;;;3.35;91.58
4972;BME280;2501;51.214;6.768;2023-02-16T03:24:30;102107.16;;;3.37;91.66
4972;BME280;2501;51.214;6.768;2023-02-16T03:27:14;102103.66;;;3.36;91.91
4972;BME280;2501;51.214;6.768;2023-02-16T03:29:57;102103.75;;;3.38;91.68
4972;BME280;2501;51.214;6.768;2023-02-16T03:32:31;102109.47;;;3.32;91.78
4972;BME280;2501;51.214;6.768;2023-02-16T03:35:00;102113.69;;;3.30;91.77
4972;BME280;2501;51.214;6.768;2023-02-16T03:37:29;102109.31;;;3.29;91.64
4972;BME280;2501;51.214;6.768;2023-02-16T03:39:58;102118.06;;;3.31;91.95
4972;BME280;2501;51.214;6.768;2023-02-16T03:42:39;102108.97;;;3.23;91.94
4972;BME280;2501;51.214;6.768;2023-02-16T03:45:08;102105.66;;;3.26;91.97
4972;BME280;2501;51.214;6.768;2023-02-16T03:47:39;102104.50;;;3.21;92.35
4972;BME280;2501;51.214;6.768;2023-02-16T03:50:08;102110.75;;;3.24;92.29
4972;BME280;2501;51.214;6.768;2023-02-16T03:52:36;102116.84;;;3.25;92.53
4972;BME280;2501;51.214;6.768;2023-02-16T03:55:05;102119.34;;;3.23;92.34
4972;BME280;2501;51.214;6.768;2023-02-16T03:57:34;102121.13;;;3.24;92.13
4972;BME280;2501;51.214;6.768;2023-02-16T04:00:03;102121.13;;;3.24;92.00
4972;BME280;2501;51.214;6.768;2023-02-16T04:02:31;102124.53;;;3.23;92.05
4972;BME280;2501;51.214;6.768;2023-02-16T04:05:03;102120.25;;;3.24;92.09
4972;BME280;2501;51.214;6.768;2023-02-16T04:07:31;102119.34;;;3.23;91.99
4972;BME280;2501;51.214;6.768;2023-02-16T04:10:00;102116.66;;;3.22;91.86
4972;BME280;2501;51.214;6.768;2023-02-16T04:12:28;102113.19;;;3.21;91.99
4972;BME280;2501;51.214;6.768;2023-02-16T04:15:04;102114.69;;;3.18;91.90
4972;BME280;2501;51.214;6.768;2023-02-16T04:17:33;102111.38;;;3.20;92.03
4972;BME280;2501;51.214;6.768;2023-02-16T04:20:05;102114.97;;;3.22;92.02
4972;BME280;2501;51.214;6.768;2023-02-16T04:22:34;102107.91;;;3.20;92.03
4972;BME280;2501;51.214;6.768;2023-02-16T04:25:03;102112.56;;;3.25;91.92
4972;BME280;2501;51.214;6.768;2023-02-16T04:27:32;102115.69;;;3.20;91.99
4972;BME280;2501;51.214;6.768;2023-02-16T04:30:00;102112.38;;;3.22;92.05
4972;BME280;2501;51.214;6.768;2023-02-16T04:32:29;102113.91;;;3.19;92.04
4972;BME280;2501;51.214;6.768;2023-02-16T04:34:58;102118.81;;;3.14;92.17
4972;BME280;2501;51.214;6.768;2023-02-16T04:37:29;102117.00;;;3.13;92.19
4972;BME280;2501;51.214;6.768;2023-02-16T04:39:58;102116.31;;;3.15;92.24
4972;BME280;2501;51.214;6.768;2023-02-16T04:42:26;102115.97;;;3.09;92.48
4972;BME280;2501;51.214;6.768;2023-02-16T04:44:54;102117.75;;;3.10;92.38
4972;BME280;2501;51.214;6.768;2023-02-16T04:47:23;102113.38;;;3.09;92.67
4972;BME280;2501;51.214;6.768;2023-02-16T04:49:55;102104.81;;;3.10;92.63
4972;BME280;2501;51.214;6.768;2023-02-16T04:52:24;102109.09;;;3.10;92.73
4972;BME280;2501;51.214;6.768;2023-02-16T04:54:55;102102.34;;;3.13;92.63
4972;BME280;2501;51.214;6.768;2023-02-16T04:57:24;102105.59;;;3.09;92.58
4972;BME280;2501;51.214;6.768;2023-02-16T04:59:52;102111.41;;;3.05;92.72
4972;BME280;2501;51.214;6.768;2023-02-16T05:02:21;102115.22;;;3.12;92.89
4972;BME280;2501;51.214;6.768;2023-02-16T05:04:49;102116.78;;;3.08;92.62
4972;BME280;2501;51.214;6.768;2023-02-16T05:07:18;102109.00;;;3.08;92.80
4972;BME280;2501;51.214;6.768;2023-02-16T05:09:46;102107.31;;;3.09;92.95
4972;BME280;2501;51.214;6.768;2023-02-16T05:12:17;102116.69;;;3.07;92.99
4972;BME280;2501;51.214;6.768;2023-02-16T05:14:58;102106.13;;;3.04;93.05
4972;BME280;2501;51.214;6.768;2023-02-16T05:17:26;102117.56;;;3.07;93.00
4972;BME280;2501;51.214;6.768;2023-02-16T05:19:56;102126.16;;;3.06;93.02
4972;BME280;2501;51.214;6.768;2023-02-16T05:22:26;102121.16;;;3.09;92.99
4972;BME280;2501;51.214;6.768;2023-02-16T05:24:57;102115.78;;;3.06;92.82
4972;BME280;2501;51.214;6.768;2023-02-16T05:27:29;102114.72;;;3.03;92.77
4972;BME280;2501;51.214;6.768;2023-02-16T05:29:58;102109.81;;;3.07;92.70
4972;BME280;2501;51.214;6.768;2023-02-16T05:32:26;102123.84;;;3.11;92.61
4972;BME280;2501;51.214;6.768;2023-02-16T05:34:55;102127.38;;;3.13;92.68
4972;BME280;2501;51.214;6.768;2023-02-16T05:37:23;102125.97;;;3.18;92.44
4972;BME280;2501;51.214;6.768;2023-02-16T05:39:52;102117.09;;;3.14;92.10
4972;BME280;2501;51.214;6.768;2023-02-16T05:42:20;102116.50;;;3.19;92.10
4972;BME280;2501;51.214;6.768;2023-02-16T05:44:51;102120.34;;;3.10;92.15
4972;BME280;2501;51.214;6.768;2023-02-16T05:47:20;102118.66;;;3.11;91.96
4972;BME280;2501;51.214;6.768;2023-02-16T05:49:48;102121.66;;;3.19;92.03
4972;BME280;2501;51.214;6.768;2023-02-16T05:52:16;102111.31;;;3.19;91.98
4972;BME280;2501;51.214;6.768;2023-02-16T05:54:45;102115.06;;;3.24;91.68
4972;BME280;2501;51.214;6.768;2023-02-16T05:57:13;102110.94;;;3.27;91.71
4972;BME280;2501;51.214;6.768;2023-02-16T05:59:42;102115.16;;;3.25;91.44
4972;BME280;2501;51.214;6.768;2023-02-16T06:02:13;102112.88;;;3.31;91.46
4972;BME280;2501;51.214;6.768;2023-02-16T06:04:41;102118.06;;;3.31;91.23
4972;BME280;2501;51.214;6.768;2023-02-16T06:07:09;102111.44;;;3.36;91.13
4972;BME280;2501;51.214;6.768;2023-02-16T06:09:38;102110.03;;;3.41;90.79
4972;BME280;2501;51.214;6.768;2023-02-16T06:12:06;102107.25;;;3.38;90.58
4972;BME280;2501;51.214;6.768;2023-02-16T06:14:35;102109.44;;;3.47;90.45
4972;BME280;2501;51.214;6.768;2023-02-16T06:17:03;102109.44;;;3.47;90.16
4972;BME280;2501;51.214;6.768;2023-02-16T06:19:34;102114.41;;;3.42;90.11
4972;BME280;2501;51.214;6.768;2023-02-16T06:22:02;102111.81;;;3.42;89.69
4972;BME280;2501;51.214;6.768;2023-02-16T06:24:31;102107.44;;;3.41;90.05
4972;BME280;2501;51.214;6.768;2023-02-16T06:26:59;102112.78;;;3.44;89.90
4972;BME280;2501;51.214;6.768;2023-02-16T06:29:28;102107.03;;;3.50;89.49
4972;BME280;2501;51.214;6.768;2023-02-16T06:31:56;102098.53;;;3.53;89.31
4972;BME280;2501;51.214;6.768;2023-02-16T06:34:25;102101.03;;;3.51;89.16
4972;BME280;2501;51.214;6.768;2023-02-16T06:36:56;102112.84;;;3.61;89.23
4972;BME280;2501;51.214;6.768;2023-02-16T06:39:24;102115.72;;;3.50;88.89
4972;BME280;2501;51.214;6.768;2023-02-16T06:41:53;102127.59;;;3.62;88.53
4972;BME280;2501;51.214;6.768;2023-02-16T06:44:21;102127.16;;;3.54;88.59
4972;BME280;2501;51.214;6.768;2023-02-16T06:46:49;102127.25;;;3.56;88.27
4972;BME280;2501;51.214;6.768;2023-02-16T06:49:19;102114.28;;;3.56;88.05
4972;BME280;2501;51.214;6.768;2023-02-16T06:51:48;102116.47;;;3.64;87.79
4972;BME280;2501;51.214;6.768;2023-02-16T06:54:19;102132.13;;;3.66;87.71
4972;BME280;2501;51.214;6.768;2023-02-16T06:56:48;102131.59;;;3.71;87.28
4972;BME280;2501;51.214;6.768;2023-02-16T06:59:16;102124.25;;;3.64;87.23
4972;BME280;2501;51.214;6.768;2023-02-16T07:01:45;102125.00;;;3.62;87.10
4972;BME280;2501;51.214;6.768;2023-02-16T07:04:13;102128.53;;;3.64;87.51
4972;BME280;2501;51.214;6.768;2023-02-16T07:06:42;102123.00;;;3.72;87.25
4972;BME280;2501;51.214;6.768;2023-02-16T07:09:10;102126.38;;;3.71;86.98
4972;BME280;2501;51.214;6.768;2023-02-16T07:11:41;102116.28;;;3.76;86.60
4972;BME280;2501;51.214;6.768;2023-02-16T07:14:10;102120.84;;;3.80;86.45
4972;BME280;2501;51.214;6.768;2023-02-16T07:16:38;102117.19;;;3.93;86.42
4972;BME280;2501;51.214;6.768;2023-02-16T07:19:07;102119.19;;;3.82;86.01
4972;BME280;2501;51.214;6.768;2023-02-16T07:21:35;102120.47;;;3.74;85.91
4972;BME280;2501;51.214;6.768;2023-02-16T07:24:04;102117.81;;;3.89;85.87
4972;BME280;2501;51.214;6.768;2023-02-16T07:26:33;102119.34;;;3.85;85.98
4972;BME280;2501;51.214;6.768;2023-02-16T07:29:05;102112.41;;;4.00;85.47
4972;BME280;2501;51.214;6.768;2023-02-16T07:31:34;102110.13;;;3.90;85.44
4972;BME280;2501;51.214;6.768;2023-02-16T07:34:02;102123.44;;;3.96;85.44
4972;BME280;2501;51.214;6.768;2023-02-16T07:36:30;102118.56;;;4.02;85.12
4972;BME280;2501;51.214;6.768;2023-02-16T07:38:59;102125.97;;;4.11;84.90
4972;BME280;2501;51.214;6.768;2023-02-16T07:41:28;102121.00;;;3.99;84.72
4972;BME280;2501;51.214;6.768;2023-02-16T07:43:56;102124.75;;;4.04;85.18
4972;BME280;2501;51.214;6.768;2023-02-16T07:46:31;102125.81;;;4.08;84.79
4972;BME280;2501;51.214;6.768;2023-02-16T07:49:00;102118.34;;;4.14;84.64
4972;BME280;2501;51.214;6.768;2023-02-16T07:51:29;102113.25;;;4.15;84.36
4972;BME280;2501;51.214;6.768;2023-02-16T07:53:59;102117.75;;;4.19;84.39
4972;BME280;2501;51.214;6.768;2023-02-16T07:56:29;102120.28;;;4.18;84.49
4972;BME280;2501;51.214;6.768;2023-02-16T07:58:59;102120.38;;;4.19;84.18
4972;BME280;2501;51.214;6.768;2023-02-16T08:01:31;102116.06;;;4.20;84.26
4972;BME280;2501;51.214;6.768;2023-02-16T08:04:00;102124.09;;;4.25;84.06
4972;BME280;2501;51.214;6.768;2023-02-16T08:06:29;102134.91;;;4.32;83.87
4972;BME280;2501;51.214;6.768;2023-02-16T08:08:57;102135.72;;;4.31;83.76
4972;BME280;2501;51.214;6.768;2023-02-16T08:11:26;102139.59;;;4.23;83.54
4972;BME280;2501;51.214;6.768;2023-02-16T08:13:54;102129.31;;;4.25;83.52
4972;BME280;2501;51.214;6.768;2023-02-16T08:16:24;102124.28;;;4.28;83.47
4972;BME280;2501;51.214;6.768;2023-02-16T08:18:57;102126.78;;;4.26;83.49
4972;BME280;2501;51.214;6.768;2023-02-16T08:21:30;102131.97;;;4.26;83.49
4972;BME280;2501;51.214;6.768;2023-02-16T08:24:00;102127.84;;;4.13;83.79
4972;BME280;2501;51.214;6.768;2023-02-16T08:26:33;102130.66;;;4.18;84.07
4972;BME280;2501;51.214;6.768;2023-02-16T08:29:03;102147.88;;;4.16;84.17
4972;BME280;2501;51.214;6.768;2023-02-16T08:31:35;102148.28;;;4.24;83.82
4972;BME280;2501;51.214;6.768;2023-02-16T08:34:09;102136.03;;;4.21;83.63
4972;BME280;2501;51.214;6.768;2023-02-16T08:36:39;102143.09;;;4.24;83.83
4972;BME280;2501;51.214;6.768;2023-02-16T08:39:13;102141.13;;;4.19;83.65
4972;BME280;2501;51.214;6.768;2023-02-16T08:41:43;102132.31;;;4.32;83.33
4972;BME280;2501;51.214;6.768;2023-02-16T08:44:13;102134.31;;;4.38;83.12
4972;BME280;2501;51.214;6.768;2023-02-16T08:46:44;102133.13;;;4.47;82.63
4972;BME280;2501;51.214;6.768;2023-02-16T08:49:18;102132.59;;;4.54;82.31
4972;BME280;2501;51.214;6.768;2023-02-16T08:51:49;102133.91;;;4.63;81.77
4972;BME280;2501;51.214;6.768;2023-02-16T08:54:20;102137.50;;;4.65;81.82
4972;BME280;2501;51.214;6.768;2023-02-16T08:56:51;102131.84;;;4.73;81.61
4972;BME280;2501;51.214;6.768;2023-02-16T08:59:21;102127.38;;;4.71;80.93
4972;BME280;2501;51.214;6.768;2023-02-16T09:01:50;102130.50;;;4.98;80.77
4972;BME280;2501;51.214;6.768;2023-02-16T09:04:21;102132.31;;;4.99;80.25
4972;BME280;2501;51.214;6.768;2023-02-16T09:06:50;102133.06;;;5.14;79.81
4972;BME280;2501;51.214;6.768;2023-02-16T09:09:19;102135.13;;;5.21;79.51
4972;BME280;2501;51.214;6.768;2023-02-16T09:11:47;102129.88;;;5.37;78.73
4972;BME280;2501;51.214;6.768;2023-02-16T09:14:17;102134.03;;;5.69;78.20
4972;BME280;2501;51.214;6.768;2023-02-16T09:16:47;102120.31;;;5.73;77.26
4972;BME280;2501;51.214;6.768;2023-02-16T09:19:21;102134.13;;;5.71;77.37
4972;BME280;2501;51.214;6.768;2023-02-16T09:21:50;102129.66;;;5.68;76.72
4972;BME280;2501;51.214;6.768;2023-02-16T09:24:21;102129.19;;;5.94;76.46
4972;BME280;2501;51.214;6.768;2023-02-16T09:26:51;102130.38;;;6.01;76.35
4972;BME280;2501;51.214;6.768;2023-02-16T09:29:19;102132.31;;;6.05;76.03
4972;BME280;2501;51.214;6.768;2023-02-16T09:31:48;102135.47;;;6.17;75.91
4972;BME280;2501;51.214;6.768;2023-02-16T09:34:18;102141.06;;;6.26;75.28
4972;BME280;2501;51.214;6.768;2023-02-16T09:36:49;102136.81;;;6.09;75.53
4972;BME280;2501;51.214;6.768;2023-02-16T09:39:18;102156.69;;;6.07;76.07
4972;BME280;2501;51.214;6.768;2023-02-16T09:41:59;102158.63;;;6.11;76.08
4972;BME280;2501;51.214;6.768;2023-02-16T09:44:38;102163.63;;;6.26;75.58
4972;BME280;2501;51.214;6.768;2023-02-16T09:47:16;102162.13;;;6.31;75.18
4972;BME280;2501;51.214;6.768;2023-02-16T09:49:48;102164.97;;;6.36;75.59
4972;BME280;2501;51.214;6.768;2023-02-16T09:52:25;102167.09;;;6.07;75.95
4972;BME280;2501;51.214;6.768;2023-02-16T09:54:57;102167.16;;;6.09;76.13
4972;BME280;2501;51.214;6.768;2023-02-16T10:00:25;102170.44;;;6.22;75.71
4972;BME280;2501;51.214;6.768;2023-02-16T10:03:06;102173.97;;;6.24;76.20
4972;BME280;2501;51.214;6.768;2023-02-16T10:05:44;102171.81;;;6.34;75.79
4972;BME280;2501;51.214;6.768;2023-02-16T10:08:23;102173.53;;;6.52;75.76
4972;BME280;2501;51.214;6.768;2023-02-16T10:10:58;102169.41;;;6.38;75.69
4972;BME280;2501;51.214;6.768;2023-02-16T10:13:36;102169.41;;;6.38;76.09
4972;BME280;2501;51.214;6.768;2023-02-16T10:16:13;102167.13;;;6.26;76.62
4972;BME280;2501;51.214;6.768;2023-02-16T10:18:47;102162.69;;;6.43;76.73
4972;BME280;2501;51.214;6.768;2023-02-16T10:21:23;102175.72;;;6.43;76.36
4972;BME280;2501;51.214;6.768;2023-02-16T10:23:58;102161.16;;;6.29;77.20
4972;BME280;2501;51.214;6.768;2023-02-16T10:26:31;102165.84;;;6.36;77.23
4972;BME280;2501;51.214;6.768;2023-02-16T10:29:05;102165.56;;;6.69;76.83
4972;BME280;2501;51.214;6.768;2023-02-16T10:31:38;102171.47;;;6.45;75.98
4972;BME280;2501;51.214;6.768;2023-02-16T10:34:16;102171.06;;;6.36;77.19
4972;BME280;2501;51.214;6.768;2023-02-16T10:36:57;102168.53;;;6.38;76.87
4972;BME280;2501;51.214;6.768;2023-02-16T10:39:35;102180.03;;;6.43;77.22
4972;BME280;2501;51.214;6.768;2023-02-16T10:42:12;102177.72;;;6.49;77.32
4972;BME280;2501;51.214;6.768;2023-02-16T10:44:46;102166.31;;;6.66;76.70
4972;BME280;2501;51.214;6.768;2023-02-16T10:47:23;102171.88;;;6.74;76.39
4972;BME280;2501;51.214;6.768;2023-02-16T10:49:55;102165.19;;;6.80;75.89
4972;BME280;2501;51.214;6.768;2023-02-16T10:52:24;102155.53;;;6.78;76.14
4972;BME280;2501;51.214;6.768;2023-02-16T10:54:58;102167.25;;;6.87;76.01
4972;BME280;2501;51.214;6.768;2023-02-16T10:57:28;102157.16;;;6.95;75.61
4972;BME280;2501;51.214;6.768;2023-02-16T10:59:58;102153.41;;;6.88;75.76
4972;BME280;2501;51.214;6.768;2023-02-16T11:02:34;102146.03;;;7.20;74.88
4972;BME280;2501;51.214;6.768;2023-02-16T11:05:28;102145.84;;;7.15;74.78
4972;BME280;2501;51.214;6.768;2023-02-16T11:07:58;102138.78;;;7.33;74.90
4972;BME280;2501;51.214;6.768;2023-02-16T11:10:42;102136.38;;;7.38;74.40
4972;BME280;2501;51.214;6.768;2023-02-16T11:13:26;102137.59;;;7.68;74.51
4972;BME280;2501;51.214;6.768;2023-02-16T11:15:57;102134.56;;;7.58;73.57
4972;BME280;2501;51.214;6.768;2023-02-16T11:18:35;102125.44;;;7.48;73.95
4972;BME280;2501;51.214;6.768;2023-02-16T11:21:05;102119.41;;;7.49;73.91
4972;BME280;2501;51.214;6.768;2023-02-16T11:23:35;102118.38;;;7.46;74.19
4972;BME280;2501;51.214;6.768;2023-02-16T11:26:21;102101.63;;;7.61;74.11
4972;BME280;2501;51.214;6.768;2023-02-16T11:28:51;102108.22;;;7.74;74.06
4972;BME280;2501;51.214;6.768;2023-02-16T11:31:24;102111.91;;;7.79;73.76
4972;BME280;2501;51.214;6.768;2023-02-16T11:33:58;102115.88;;;7.69;74.92
4972;BME280;2501;51.214;6.768;2023-02-16T11:36:31;102120.31;;;7.72;75.23
4972;BME280;2501;51.214;6.768;2023-02-16T11:39:02;102114.28;;;7.73;75.27
4972;BME280;2501;51.214;6.768;2023-02-16T11:41:35;102106.50;;;7.75;75.31
4972;BME280;2501;51.214;6.768;2023-02-16T11:44:19;102098.66;;;7.75;75.11
4972;BME280;2501;51.214;6.768;2023-02-16T11:46:52;102086.50;;;7.99;74.77
4972;BME280;2501;51.214;6.768;2023-02-16T11:49:29;102091.53;;;7.93;74.53
4972;BME280;2501;51.214;6.768;2023-02-16T11:51:59;102088.19;;;7.97;74.62
4972;BME280;2501;51.214;6.768;2023-02-16T11:54:28;102084.84;;;8.01;74.52
4972;BME280;2501;51.214;6.768;2023-02-16T11:57:04;102085.75;;;8.01;74.73
4972;BME280;2501;51.214;6.768;2023-02-16T11:59:35;102073.88;;;8.10;74.70
4972;BME280;2501;51.214;6.768;2023-02-16T12:05:24;102083.50;;;8.34;75.76
4972;BME280;2501;51.214;6.768;2023-02-16T12:08:07;102095.28;;;8.23;76.15
4972;BME280;2501;51.214;6.768;2023-02-16T12:10:45;102079.81;;;8.29;76.07
4972;BME280;2501;51.214;6.768;2023-02-16T12:13:30;102074.84;;;8.35;76.06
4972;BME280;2501;51.214;6.768;2023-02-16T12:16:13;102074.72;;;8.56;76.01
4972;BME280;2501;51.214;6.768;2023-02-16T12:18:50;102076.59;;;8.60;75.38
4972;BME280;2501;51.214;6.768;2023-02-16T12:21:29;102077.69;;;8.42;75.06
4972;BME280;2501;51.214;6.768;2023-02-16T12:24:11;102061.56;;;8.55;75.51
4972;BME280;2501;51.214;6.768;2023-02-16T12:26:48;102059.25;;;8.62;74.80
4972;BME280;2501;51.214;6.768;2023-02-16T12:29:36;102064.69;;;8.94;74.17
4972;BME280;2501;51.214;6.768;2023-02-16T12:32:36;102058.50;;;8.92;73.82
4972;BME280;2501;51.214;6.768;2023-02-16T12:35:19;102056.94;;;8.97;75.23
4972;BME280;2501;51.214;6.768;2023-02-16T12:37:54;102056.56;;;8.86;77.33
4972;BME280;2501;51.214;6.768;2023-02-16T12:40:37;102059.50;;;8.95;78.72
4972;BME280;2501;51.214;6.768;2023-02-16T12:43:29;102048.56;;;8.82;79.45
4972;BME280;2501;51.214;6.768;2023-02-16T12:46:04;102041.34;;;8.75;80.28
4972;BME280;2501;51.214;6.768;2023-02-16T12:48:41;102051.19;;;8.82;81.14
4972;BME280;2501;51.214;6.768;2023-02-16T12:51:17;102045.63;;;8.98;81.64
4972;BME280;2501;51.214;6.768;2023-02-16T12:53:53;102047.19;;;8.93;81.13
4972;BME280;2501;51.214;6.768;2023-02-16T12:56:28;102043.13;;;9.02;81.37
4972;BME280;2501;51.214;6.768;2023-02-16T12:59:17;102047.25;;;9.21;81.44
4972;BME280;2501;51.214;6.768;2023-02-16T13:01:51;102041.25;;;9.52;80.57
4972;BME280;2501;51.214;6.768;2023-02-16T13:04:32;102029.00;;;9.51;79.57
4972;BME280;2501;51.214;6.768;2023-02-16T13:07:11;102004.41;;;9.18;80.39
4972;BME280;2501;51.214;6.768;2023-02-16T13:09:50;101999.38;;;9.25;80.61
4972;BME280;2501;51.214;6.768;2023-02-16T13:12:26;102010.50;;;9.18;80.24
4972;BME280;2501;51.214;6.768;2023-02-16T13:15:02;102014.00;;;9.19;80.18
4972;BME280;2501;51.214;6.768;2023-02-16T13:17:39;102003.72;;;9.25;79.83
4972;BME280;2501;51.214;6.768;2023-02-16T13:20:13;102003.97;;;9.32;80.32
4972;BME280;2501;51.214;6.768;2023-02-16T13:26:04;102012.19;;;9.45;79.33
4972;BME280;2501;51.214;6.768;2023-02-16T13:28:54;102016.66;;;9.47;79.17
4972;BME280;2501;51.214;6.768;2023-02-16T13:31:33;102009.16;;;9.59;78.48
4972;BME280;2501;51.214;6.768;2023-02-16T13:34:25;101999.72;;;9.64;78.53
4972;BME280;2501;51.214;6.768;2023-02-16T13:37:28;101992.78;;;9.66;78.40
4972;BME280;2501;51.214;6.768;2023-02-16T13:40:23;101976.34;;;9.72;78.06
4972;BME280;2501;51.214;6.768;2023-02-16T13:43:04;101968.69;;;9.80;77.78
4972;BME280;2501;51.214;6.768;2023-02-16T13:45:40;101964.16;;;10.04;76.78
4972;BME280;2501;51.214;6.768;2023-02-16T13:48:20;101960.09;;;10.15;76.21
4972;BME280;2501;51.214;6.768;2023-02-16T13:50:58;101951.06;;;10.04;76.50
4972;BME280;2501;51.214;6.768;2023-02-16T13:53:32;101959.25;;;10.16;76.52
4972;BME280;2501;51.214;6.768;2023-02-16T13:58:58;101946.91;;;10.45;75.92
4972;BME280;2501;51.214;6.768;2023-02-16T14:01:35;101949.16;;;11.39;73.52
4972;BME280;2501;51.214;6.768;2023-02-16T14:04:10;101954.16;;;11.29;72.62
4972;BME280;2501;51.214;6.768;2023-02-16T14:06:42;101946.00;;;11.16;72.39
4972;BME280;2501;51.214;6.768;2023-02-16T14:12:15;101944.81;;;10.66;75.14
4972;BME280;2501;51.214;6.768;2023-02-16T14:14:56;101939.44;;;10.98;74.58
4972;BME280;2501;51.214;6.768;2023-02-16T14:17:28;101931.72;;;10.66;76.46